createdAt,value
2018-07-04T00:02:23.336Z,99.90
2018-07-04T00:05:04.068Z,99.90
2018-07-04T00:07:44.800Z,99.90
2018-07-04T00:10:25.584Z,99.90
2018-07-04T00:13:06.433Z,99.90
2018-07-04T00:15:47.288Z,99.90
2018-07-04T00:18:27.910Z,99.90
2018-07-04T00:21:08.855Z,99.90
2018-07-04T00:23:50.170Z,99.90
2018-07-04T00:26:31.061Z,99.90
2018-07-04T00:31:46.437Z,99.90
2018-07-04T00:34:27.200Z,99.90
2018-07-04T00:37:08.535Z,99.90
2018-07-04T00:39:49.311Z,99.90
2018-07-04T00:42:30.110Z,99.90
2018-07-04T00:45:10.998Z,99.90
2018-07-04T00:47:51.696Z,99.90
2018-07-04T00:50:32.537Z,99.90
2018-07-04T00:53:13.200Z,99.90
2018-07-04T00:58:28.396Z,99.90
2018-07-04T01:01:08.999Z,99.90
2018-07-04T01:03:49.772Z,99.90
2018-07-04T01:06:30.671Z,99.90
2018-07-04T01:09:11.543Z,99.90
2018-07-04T01:11:52.583Z,99.90
2018-07-04T01:14:33.239Z,99.90
2018-07-04T01:17:13.982Z,99.90
2018-07-04T01:19:54.930Z,99.90
2018-07-04T01:22:35.812Z,99.90
2018-07-04T01:25:16.676Z,99.90
2018-07-04T01:27:57.545Z,99.90
2018-07-04T01:30:38.387Z,99.90
2018-07-04T01:33:19.179Z,99.90
2018-07-04T01:35:59.999Z,99.90
2018-07-04T01:38:40.823Z,99.90
2018-07-04T01:41:21.637Z,99.90
2018-07-04T01:44:02.450Z,99.90
2018-07-04T01:46:43.315Z,99.90
2018-07-04T01:49:24.082Z,99.90
2018-07-04T01:52:04.856Z,99.90
2018-07-04T01:54:45.808Z,99.90
2018-07-04T01:57:26.594Z,99.90
2018-07-04T02:00:07.346Z,99.90
2018-07-04T02:02:48.127Z,99.90
2018-07-04T02:05:28.764Z,99.90
2018-07-04T02:08:09.532Z,99.90
2018-07-04T02:10:50.402Z,99.90
2018-07-04T02:13:31.257Z,99.90
2018-07-04T02:16:12.055Z,99.90
2018-07-04T02:18:52.959Z,99.90
2018-07-04T02:21:33.792Z,99.90
2018-07-04T02:24:14.579Z,99.90
2018-07-04T02:26:55.381Z,99.90
2018-07-04T02:29:36.268Z,99.90
2018-07-04T02:32:17.144Z,99.90
2018-07-04T02:35:00.424Z,99.90
2018-07-04T02:37:42.454Z,99.90
2018-07-04T02:42:58.304Z,99.90
2018-07-04T02:45:39.344Z,99.90
2018-07-04T02:48:20.351Z,99.90
2018-07-04T02:51:01.055Z,99.90
2018-07-04T02:53:41.719Z,99.90
2018-07-04T02:56:22.432Z,99.90
2018-07-04T02:59:03.292Z,99.90
2018-07-04T03:01:44.219Z,99.90
2018-07-04T03:04:25.008Z,99.90
2018-07-04T03:07:06.263Z,99.90
2018-07-04T03:09:47.296Z,99.90
2018-07-04T03:12:28.125Z,99.90
2018-07-04T03:15:08.858Z,99.90
2018-07-04T03:17:49.499Z,99.90
2018-07-04T03:20:30.397Z,99.90
2018-07-04T03:23:11.163Z,99.90
2018-07-04T03:25:51.856Z,99.90
2018-07-04T03:28:32.624Z,99.90
2018-07-04T03:31:13.335Z,99.90
2018-07-04T03:33:53.991Z,99.90
2018-07-04T03:36:34.778Z,99.90
2018-07-04T03:39:15.655Z,99.90
2018-07-04T03:41:56.652Z,99.90
2018-07-04T03:44:37.561Z,99.90
2018-07-04T03:47:18.963Z,99.90
2018-07-04T03:49:59.644Z,99.90
2018-07-04T03:52:40.426Z,99.90
2018-07-04T03:55:21.459Z,99.90
2018-07-04T03:58:02.444Z,99.90
2018-07-04T04:03:17.685Z,99.90
2018-07-04T04:05:58.386Z,99.90
2018-07-04T04:08:39.264Z,99.90
2018-07-04T04:11:20.097Z,99.90
2018-07-04T04:14:00.842Z,99.90
2018-07-04T04:16:41.602Z,99.90
2018-07-04T04:19:27.390Z,99.90
2018-07-04T04:24:42.879Z,99.90
2018-07-04T04:27:23.650Z,99.90
2018-07-04T04:30:04.610Z,99.90
2018-07-04T04:32:45.338Z,99.90
2018-07-04T04:35:26.317Z,99.90
2018-07-04T04:38:07.131Z,99.90
2018-07-04T04:40:47.989Z,99.90
2018-07-04T04:43:28.828Z,99.90
2018-07-04T04:46:09.456Z,99.90
2018-07-04T04:48:50.108Z,99.90
2018-07-04T04:51:30.947Z,99.90
2018-07-04T04:54:11.815Z,99.90
2018-07-04T04:56:52.608Z,99.90
2018-07-04T04:59:33.494Z,99.90
2018-07-04T05:02:14.350Z,99.90
2018-07-04T05:04:55.040Z,99.90
2018-07-04T05:07:35.767Z,99.90
2018-07-04T05:10:16.500Z,99.90
2018-07-04T05:12:57.122Z,99.90
2018-07-04T05:15:37.920Z,99.90
2018-07-04T05:18:18.434Z,99.90
2018-07-04T05:20:59.097Z,99.90
2018-07-04T05:23:39.836Z,99.90
2018-07-04T05:26:20.711Z,99.90
2018-07-04T05:29:01.300Z,99.90
2018-07-04T05:31:42.067Z,99.90
2018-07-04T05:34:22.769Z,99.90
2018-07-04T05:37:03.623Z,99.90
2018-07-04T05:39:44.318Z,99.90
2018-07-04T05:42:25.169Z,99.90
2018-07-04T05:45:05.915Z,99.90
2018-07-04T05:47:46.751Z,99.90
2018-07-04T05:50:27.641Z,99.90
2018-07-04T05:53:08.511Z,99.90
2018-07-04T05:55:49.449Z,99.90
2018-07-04T05:58:30.304Z,99.90
2018-07-04T06:01:11.183Z,99.90
2018-07-04T06:03:51.870Z,99.90
2018-07-04T06:06:32.665Z,99.90
2018-07-04T06:09:13.578Z,99.90
2018-07-04T06:11:54.710Z,99.90
2018-07-04T06:14:35.589Z,99.90
2018-07-04T06:17:16.251Z,99.90
2018-07-04T06:19:56.931Z,99.90
2018-07-04T06:22:37.826Z,99.90
2018-07-04T06:25:18.673Z,99.70
2018-07-04T06:30:34.035Z,98.90
2018-07-04T06:33:14.955Z,98.90
2018-07-04T06:35:55.711Z,98.10
2018-07-04T06:38:24.117Z,97.40
2018-07-04T06:40:52.549Z,97.00
2018-07-04T06:43:20.948Z,97.00
2018-07-04T06:45:49.356Z,97.10
2018-07-04T06:48:17.754Z,97.30
2018-07-04T06:50:46.179Z,97.20
2018-07-04T06:53:14.596Z,96.10
2018-07-04T06:55:43.031Z,95.60
2018-07-04T06:58:11.451Z,95.80
2018-07-04T07:00:39.939Z,95.70
2018-07-04T07:03:20.795Z,95.10
2018-07-04T07:06:01.944Z,95.10
2018-07-04T07:08:42.636Z,94.80
2018-07-04T07:11:23.402Z,95.80
2018-07-04T07:14:04.142Z,95.20
2018-07-04T07:16:44.921Z,94.90
2018-07-04T07:19:25.595Z,94.20
2018-07-04T07:22:06.470Z,92.10
2018-07-04T07:24:47.315Z,92.50
2018-07-04T07:30:02.916Z,90.60
2018-07-04T07:32:43.849Z,90.20
2018-07-04T07:35:24.563Z,89.00
2018-07-04T07:38:05.393Z,89.10
2018-07-04T07:40:46.179Z,88.70
2018-07-04T07:43:27.113Z,88.10
2018-07-04T07:46:07.908Z,87.40
2018-07-04T07:48:48.602Z,87.20
2018-07-04T07:51:29.525Z,87.00
2018-07-04T07:54:10.245Z,87.00
2018-07-04T07:56:51.208Z,85.20
2018-07-04T07:59:32.059Z,84.70
2018-07-04T08:02:13.103Z,85.90
2018-07-04T08:04:53.906Z,85.40
2018-07-04T08:07:34.686Z,86.10
2018-07-04T08:10:15.431Z,87.20
2018-07-04T08:12:56.230Z,85.70
2018-07-04T08:15:37.047Z,84.60
2018-07-04T08:18:17.844Z,84.20
2018-07-04T08:20:58.701Z,83.50
2018-07-04T08:23:39.621Z,82.20
2018-07-04T08:26:20.555Z,82.90
2018-07-04T08:29:01.433Z,83.00
2018-07-04T08:31:42.279Z,82.80
2018-07-04T08:34:23.024Z,83.30
2018-07-04T08:37:03.823Z,81.80
2018-07-04T08:39:44.758Z,82.90
2018-07-04T08:42:25.559Z,81.50
2018-07-04T08:45:06.420Z,80.90
2018-07-04T08:47:47.319Z,80.50
2018-07-04T08:50:28.275Z,79.00
2018-07-04T08:53:09.241Z,77.40
2018-07-04T08:55:50.130Z,77.10
2018-07-04T08:58:31.011Z,76.00
2018-07-04T09:03:46.459Z,74.30
2018-07-04T09:06:27.243Z,74.10
2018-07-04T09:09:08.137Z,71.80
2018-07-04T09:11:48.839Z,71.50
2018-07-04T09:14:29.663Z,71.60
2018-07-04T09:17:10.633Z,72.20
2018-07-04T09:19:51.566Z,72.80
2018-07-04T09:22:32.341Z,72.60
2018-07-04T09:25:13.334Z,72.80
2018-07-04T09:27:54.119Z,72.80
2018-07-04T09:30:35.188Z,72.30
2018-07-04T09:33:15.982Z,72.20
2018-07-04T09:35:56.887Z,72.40
2018-07-04T09:38:37.659Z,73.40
2018-07-04T09:41:18.534Z,72.50
2018-07-04T09:43:59.403Z,71.90
2018-07-04T09:46:40.343Z,70.70
2018-07-04T09:49:20.990Z,71.10
2018-07-04T09:52:01.908Z,71.90
2018-07-04T09:54:42.834Z,72.50
2018-07-04T09:57:23.535Z,71.90
2018-07-04T10:00:04.388Z,69.90
2018-07-04T10:02:45.096Z,68.10
2018-07-04T10:05:25.936Z,68.50
2018-07-04T10:08:06.620Z,68.10
2018-07-04T10:10:47.326Z,69.10
2018-07-04T10:13:28.170Z,66.20
2018-07-04T10:16:09.714Z,63.80
2018-07-04T10:18:50.639Z,59.70
2018-07-04T10:21:31.360Z,58.70
2018-07-04T10:24:12.162Z,59.30
2018-07-04T10:26:53.040Z,58.00
2018-07-04T10:29:33.887Z,57.10
2018-07-04T10:32:14.705Z,56.50
2018-07-04T10:34:55.679Z,57.70
2018-07-04T10:37:36.655Z,58.10
2018-07-04T10:40:17.473Z,59.50
2018-07-04T10:42:58.137Z,59.90
2018-07-04T10:45:39.037Z,60.50
2018-07-04T10:48:19.657Z,61.50
2018-07-04T10:51:00.628Z,61.10
2018-07-04T10:53:41.581Z,61.50
2018-07-04T10:56:22.190Z,61.00
2018-07-04T10:59:02.972Z,61.20
2018-07-04T11:01:43.710Z,61.90
2018-07-04T11:04:24.499Z,62.10
2018-07-04T11:07:05.462Z,63.50
2018-07-04T11:09:46.337Z,64.50
2018-07-04T11:12:27.219Z,64.50
2018-07-04T11:15:08.208Z,65.00
2018-07-04T11:17:49.113Z,65.20
2018-07-04T11:20:29.904Z,65.30
2018-07-04T11:23:10.890Z,61.10
2018-07-04T11:25:51.770Z,60.30
2018-07-04T11:28:32.717Z,58.40
2018-07-04T11:31:13.507Z,57.50
2018-07-04T11:33:54.499Z,58.60
2018-07-04T11:36:35.234Z,58.70
2018-07-04T11:39:16.065Z,59.10
2018-07-04T11:41:56.950Z,57.90
2018-07-04T11:44:37.867Z,58.70
2018-07-04T11:47:06.479Z,56.50
2018-07-04T11:49:34.947Z,56.60
2018-07-04T11:52:03.403Z,56.40
2018-07-04T11:54:31.842Z,57.50
2018-07-04T11:57:00.326Z,57.60
2018-07-04T11:59:28.695Z,58.60
2018-07-04T12:01:57.136Z,58.50
2018-07-04T12:04:37.931Z,59.80
2018-07-04T12:07:08.788Z,61.20
2018-07-04T12:09:39.270Z,60.80
2018-07-04T12:12:07.718Z,62.00
2018-07-04T12:14:36.122Z,63.20
2018-07-04T12:19:33.096Z,83.00
2018-07-04T12:22:01.536Z,90.20
2018-07-04T12:24:29.944Z,92.30
2018-07-04T12:29:26.872Z,97.90
2018-07-04T12:31:55.325Z,99.90
2018-07-04T12:34:23.697Z,99.90
2018-07-04T12:36:52.172Z,97.00
2018-07-04T12:39:20.592Z,98.60
2018-07-04T12:41:49.071Z,94.30
2018-07-04T12:46:46.057Z,93.20
2018-07-04T12:49:14.629Z,88.30
2018-07-04T12:51:43.070Z,88.80
2018-07-04T12:54:16.848Z,86.40
2018-07-04T12:56:57.584Z,81.80
2018-07-04T13:02:12.931Z,80.70
2018-07-04T13:04:53.778Z,78.90
2018-07-04T13:07:34.647Z,76.10
2018-07-04T13:10:15.457Z,71.50
2018-07-04T13:12:56.192Z,74.20
2018-07-04T13:15:37.022Z,72.80
2018-07-04T13:18:17.980Z,76.00
2018-07-04T13:20:58.805Z,71.80
2018-07-04T13:23:39.672Z,69.80
2018-07-04T13:26:20.541Z,69.20
2018-07-04T13:29:01.492Z,68.10
2018-07-04T13:31:42.454Z,68.20
2018-07-04T13:34:23.221Z,70.30
2018-07-04T13:39:38.730Z,70.50
2018-07-04T13:42:19.691Z,68.80
2018-07-04T13:47:35.118Z,62.60
2018-07-04T13:50:15.818Z,60.30
2018-07-04T13:52:56.666Z,59.80
2018-07-04T13:55:37.691Z,59.90
2018-07-04T13:58:18.457Z,59.60
2018-07-04T14:00:59.323Z,59.20
2018-07-04T14:06:14.943Z,60.30
2018-07-04T14:08:56.021Z,59.70
2018-07-04T14:11:36.900Z,59.10
2018-07-04T14:14:17.740Z,59.60
2018-07-04T14:16:58.504Z,59.60
2018-07-04T14:19:39.220Z,56.80
2018-07-04T14:22:20.225Z,54.90
2018-07-04T14:25:00.991Z,55.10
2018-07-04T14:27:41.785Z,55.60
2018-07-04T14:30:22.707Z,56.80
2018-07-04T14:33:03.572Z,54.80
2018-07-04T14:35:44.350Z,54.50
2018-07-04T14:38:25.242Z,54.40
2018-07-04T14:41:06.168Z,54.10
2018-07-04T14:43:46.888Z,53.40
2018-07-04T14:46:27.688Z,53.60
2018-07-04T14:49:08.743Z,53.80
2018-07-04T14:51:49.973Z,53.10
2018-07-04T14:54:30.846Z,55.30
2018-07-04T14:57:11.747Z,55.80
2018-07-04T14:59:52.444Z,58.20
2018-07-04T15:02:33.323Z,55.50
2018-07-04T15:05:13.973Z,55.00
2018-07-04T15:07:54.990Z,54.80
2018-07-04T15:10:35.885Z,53.80
2018-07-04T15:13:16.778Z,53.30
2018-07-04T15:15:57.543Z,52.80
2018-07-04T15:18:38.492Z,52.90
2018-07-04T15:21:19.370Z,52.90
2018-07-04T15:24:00.248Z,53.50
2018-07-04T15:26:41.110Z,51.60
2018-07-04T15:29:21.937Z,51.10
2018-07-04T15:32:02.693Z,51.70
2018-07-04T15:34:43.717Z,53.30
2018-07-04T15:37:24.533Z,54.40
2018-07-04T15:40:05.372Z,55.30
2018-07-04T15:42:46.232Z,54.80
2018-07-04T15:45:27.063Z,54.50
2018-07-04T15:48:07.735Z,53.90
2018-07-04T15:50:48.679Z,53.00
2018-07-04T15:53:29.372Z,53.30
2018-07-04T15:56:10.281Z,53.90
2018-07-04T15:58:51.309Z,51.90
2018-07-04T16:01:32.256Z,52.20
2018-07-04T16:04:13.293Z,52.20
2018-07-04T16:06:54.241Z,50.20
2018-07-04T16:09:35.196Z,47.20
2018-07-04T16:12:16.138Z,47.50
2018-07-04T16:17:31.420Z,43.80
2018-07-04T16:22:46.854Z,42.20
2018-07-04T16:25:27.576Z,43.40
2018-07-04T16:28:08.221Z,44.70
2018-07-04T16:30:49.232Z,45.70
2018-07-04T16:33:30.024Z,46.10
2018-07-04T16:36:11.167Z,47.60
2018-07-04T16:38:51.870Z,48.40
2018-07-04T16:41:32.702Z,48.50
2018-07-04T16:44:13.555Z,48.70
2018-07-04T16:46:54.402Z,49.50
2018-07-04T16:49:35.191Z,50.80
2018-07-04T16:52:16.123Z,51.30
2018-07-04T16:54:57.084Z,52.20
2018-07-04T16:57:38.128Z,50.20
2018-07-04T17:00:18.839Z,51.10
2018-07-04T17:02:59.541Z,51.30
2018-07-04T17:05:40.248Z,52.40
2018-07-04T17:08:21.001Z,52.80
2018-07-04T17:11:02.042Z,53.40
2018-07-04T17:13:43.039Z,54.20
2018-07-04T17:16:23.733Z,55.30
2018-07-04T17:19:04.651Z,55.60
2018-07-04T17:21:45.670Z,54.60
2018-07-04T17:24:26.580Z,54.40
2018-07-04T17:27:07.985Z,54.60
2018-07-04T17:29:49.034Z,55.60
2018-07-04T17:32:29.901Z,55.60
2018-07-04T17:35:10.821Z,55.90
2018-07-04T17:37:51.588Z,55.60
2018-07-04T17:40:32.268Z,55.80
2018-07-04T17:43:13.026Z,56.30
2018-07-04T17:45:53.956Z,56.90
2018-07-04T17:48:34.924Z,57.50
2018-07-04T17:51:15.868Z,57.80
2018-07-04T17:53:56.845Z,58.00
2018-07-04T17:56:37.579Z,57.80
2018-07-04T17:59:18.586Z,57.40
2018-07-04T18:01:59.365Z,57.60
2018-07-04T18:04:40.255Z,58.10
2018-07-04T18:09:55.553Z,58.80
2018-07-04T18:12:36.489Z,59.30
2018-07-04T18:15:17.376Z,59.10
2018-07-04T18:17:58.314Z,61.10
2018-07-04T18:20:39.148Z,59.90
2018-07-04T18:23:20.044Z,60.50
2018-07-04T18:26:00.942Z,61.50
2018-07-04T18:28:41.937Z,61.10
2018-07-04T18:31:22.695Z,62.50
2018-07-04T18:34:03.561Z,61.80
2018-07-04T18:36:44.492Z,61.40
2018-07-04T18:39:25.220Z,62.80
2018-07-04T18:42:06.151Z,63.60
2018-07-04T18:44:47.111Z,62.80
2018-07-04T18:47:28.146Z,63.30
2018-07-04T18:50:09.350Z,67.10
2018-07-04T18:52:50.212Z,67.90
2018-07-04T18:55:31.191Z,66.90
2018-07-04T19:00:46.918Z,67.80
2018-07-04T19:03:28.419Z,67.80
2018-07-04T19:06:09.453Z,68.70
2018-07-04T19:08:50.178Z,70.10
2018-07-04T19:11:31.045Z,67.90
2018-07-04T19:14:12.751Z,69.80
2018-07-04T19:16:53.584Z,68.90
2018-07-04T19:19:34.568Z,68.20
2018-07-04T19:22:15.468Z,69.00
2018-07-04T19:24:56.821Z,68.40
2018-07-04T19:27:37.807Z,69.60
2018-07-04T19:30:18.940Z,72.00
2018-07-04T19:33:00.408Z,72.60
2018-07-04T19:35:41.316Z,72.80
2018-07-04T19:38:22.217Z,73.50
2018-07-04T19:41:03.484Z,73.80
2018-07-04T19:43:44.795Z,74.40
2018-07-04T19:46:25.934Z,75.00
2018-07-04T19:49:07.520Z,76.70
2018-07-04T19:51:48.282Z,77.10
2018-07-04T19:54:29.144Z,77.20
2018-07-04T19:57:10.615Z,77.80
2018-07-04T19:59:52.264Z,79.40
2018-07-04T20:02:33.084Z,80.20
2018-07-04T20:05:13.978Z,81.00
2018-07-04T20:07:54.796Z,81.40
2018-07-04T20:10:35.665Z,81.90
2018-07-04T20:13:16.460Z,82.30
2018-07-04T20:15:57.298Z,82.80
2018-07-04T20:18:38.133Z,83.50
2018-07-04T20:21:19.032Z,84.40
2018-07-04T20:23:59.931Z,85.10
2018-07-04T20:26:40.665Z,85.50
2018-07-04T20:29:21.434Z,86.00
2018-07-04T20:32:02.381Z,87.00
2018-07-04T20:34:43.346Z,87.30
2018-07-04T20:37:24.153Z,88.70
2018-07-04T20:40:05.093Z,88.70
2018-07-04T20:42:45.935Z,88.40
2018-07-04T20:45:27.131Z,88.40
2018-07-04T20:48:07.733Z,88.60
2018-07-04T20:53:23.498Z,89.80
2018-07-04T20:56:04.281Z,90.00
2018-07-04T20:58:45.078Z,90.30
2018-07-04T21:01:26.117Z,90.80
2018-07-04T21:04:06.977Z,91.40
2018-07-04T21:06:47.767Z,91.80
2018-07-04T21:09:28.469Z,92.00
2018-07-04T21:12:09.150Z,92.40
2018-07-04T21:14:50.023Z,92.50
2018-07-04T21:17:30.889Z,92.80
2018-07-04T21:20:11.565Z,93.10
2018-07-04T21:22:52.574Z,93.30
2018-07-04T21:25:33.247Z,93.80
2018-07-04T21:28:14.275Z,93.80
2018-07-04T21:30:55.263Z,94.20
2018-07-04T21:33:36.077Z,94.40
2018-07-04T21:36:16.867Z,94.60
2018-07-04T21:38:57.523Z,94.70
2018-07-04T21:41:38.404Z,95.10
2018-07-04T21:44:19.371Z,95.50
2018-07-04T21:47:00.144Z,95.40
2018-07-04T21:49:41.060Z,95.60
2018-07-04T21:52:21.885Z,95.80
2018-07-04T21:55:02.664Z,95.90
2018-07-04T21:57:43.405Z,96.20
2018-07-04T22:00:24.372Z,96.60
2018-07-04T22:03:05.188Z,96.50
2018-07-04T22:05:45.833Z,96.80
2018-07-04T22:08:26.668Z,97.20
2018-07-04T22:11:07.319Z,97.30
2018-07-04T22:13:48.284Z,97.80
2018-07-04T22:16:29.157Z,97.50
2018-07-04T22:19:09.985Z,97.70
2018-07-04T22:21:50.819Z,97.90
2018-07-04T22:24:31.606Z,98.10
2018-07-04T22:27:12.439Z,98.20
2018-07-04T22:29:53.347Z,98.10
2018-07-04T22:32:34.193Z,98.00
2018-07-04T22:35:15.042Z,98.10
2018-07-04T22:37:56.046Z,98.50
2018-07-04T22:40:36.798Z,98.30
2018-07-04T22:43:17.673Z,98.60
2018-07-04T22:45:58.725Z,98.50
2018-07-04T22:48:39.477Z,98.60
2018-07-04T22:51:20.275Z,98.50
2018-07-04T22:54:00.965Z,98.70
2018-07-04T22:56:41.795Z,99.00
2018-07-04T22:59:22.556Z,99.10
2018-07-04T23:02:03.320Z,99.20
2018-07-04T23:04:44.027Z,99.50
2018-07-04T23:07:24.752Z,99.90
2018-07-04T23:10:05.596Z,99.90
2018-07-04T23:12:46.467Z,99.90
2018-07-04T23:15:27.387Z,99.90
2018-07-04T23:18:08.283Z,99.90
2018-07-04T23:23:23.629Z,99.90
2018-07-04T23:26:04.603Z,99.90
2018-07-04T23:28:45.479Z,99.90
2018-07-04T23:31:26.095Z,99.90
2018-07-04T23:34:06.823Z,99.90
2018-07-04T23:36:47.755Z,99.90
2018-07-04T23:39:28.655Z,99.90
2018-07-04T23:42:09.435Z,99.90
2018-07-04T23:44:50.316Z,99.90
2018-07-04T23:47:31.028Z,99.90
2018-07-04T23:50:11.852Z,99.90
2018-07-04T23:52:52.673Z,99.90
2018-07-04T23:55:33.474Z,99.90
2018-07-04T23:58:14.287Z,99.90
